createdAt,value
2017-11-20T00:01:49.228Z,1.30
2017-11-20T00:04:17.333Z,1.60
2017-11-20T00:06:43.548Z,1.63
2017-11-20T00:09:09.752Z,1.50
2017-11-20T00:11:36.735Z,1.17
2017-11-20T00:14:02.943Z,1.70
2017-11-20T00:16:29.123Z,1.50
2017-11-20T00:18:55.293Z,1.80
2017-11-20T00:21:21.466Z,4.40
2017-11-20T00:23:49.990Z,8.53
2017-11-20T00:26:16.953Z,2.63
2017-11-20T00:28:43.167Z,1.90
2017-11-20T00:31:10.884Z,2.17
2017-11-20T00:33:37.136Z,2.40
2017-11-20T00:36:03.363Z,1.27
2017-11-20T00:38:33.977Z,1.60
2017-11-20T00:41:00.151Z,1.50
2017-11-20T00:43:27.134Z,2.00
2017-11-20T00:45:53.324Z,1.80
2017-11-20T00:48:20.225Z,1.57
2017-11-20T00:50:46.417Z,2.50
2017-11-20T00:53:13.310Z,1.53
2017-11-20T00:55:39.525Z,2.00
2017-11-20T00:58:05.718Z,1.70
2017-11-20T01:00:31.940Z,1.67
2017-11-20T01:02:58.890Z,1.60
2017-11-20T01:05:25.100Z,1.93
2017-11-20T01:07:51.286Z,2.30
2017-11-20T01:10:17.463Z,1.93
2017-11-20T01:12:43.662Z,1.70
2017-11-20T01:15:09.845Z,2.17
2017-11-20T01:17:36.010Z,1.97
2017-11-20T01:20:02.943Z,2.07
2017-11-20T01:22:29.864Z,2.00
2017-11-20T01:24:56.035Z,1.80
2017-11-20T01:27:23.677Z,1.67
2017-11-20T01:29:49.855Z,1.33
2017-11-20T01:32:16.051Z,2.37
2017-11-20T01:34:42.262Z,1.53
2017-11-20T01:37:08.439Z,1.43
2017-11-20T01:39:35.371Z,1.40
2017-11-20T01:42:01.586Z,1.73
2017-11-20T01:44:27.851Z,1.40
2017-11-20T01:46:54.021Z,1.80
2017-11-20T01:49:20.250Z,1.43
2017-11-20T01:51:46.425Z,1.87
2017-11-20T01:54:12.624Z,1.93
2017-11-20T01:56:38.834Z,1.47
2017-11-20T01:59:05.017Z,1.57
2017-11-20T02:01:31.415Z,1.73
2017-11-20T02:03:57.610Z,1.83
2017-11-20T02:06:23.815Z,1.70
2017-11-20T02:08:50.002Z,2.30
2017-11-20T02:11:16.942Z,2.17
2017-11-20T02:13:43.113Z,2.40
2017-11-20T02:16:09.304Z,1.90
2017-11-20T02:18:35.533Z,2.40
2017-11-20T02:21:01.688Z,2.50
2017-11-20T02:23:28.591Z,1.93
2017-11-20T02:25:54.798Z,2.03
2017-11-20T02:28:20.965Z,1.97
2017-11-20T02:30:47.121Z,2.23
2017-11-20T02:33:13.301Z,1.70
2017-11-20T02:35:39.473Z,2.43
2017-11-20T02:38:05.633Z,2.60
2017-11-20T02:40:31.847Z,2.03
2017-11-20T02:42:58.065Z,1.80
2017-11-20T02:45:24.472Z,1.67
2017-11-20T02:47:50.633Z,2.23
2017-11-20T02:50:17.587Z,2.67
2017-11-20T02:52:43.767Z,2.47
2017-11-20T02:55:10.682Z,2.97
2017-11-20T02:57:36.883Z,2.97
2017-11-20T03:00:03.766Z,2.10
2017-11-20T03:02:29.966Z,3.00
2017-11-20T03:04:56.130Z,2.57
2017-11-20T03:07:22.302Z,3.67
2017-11-20T03:09:49.213Z,2.90
2017-11-20T03:12:15.380Z,2.40
2017-11-20T03:14:42.290Z,2.90
2017-11-20T03:17:08.488Z,2.83
2017-11-20T03:19:34.670Z,2.87
2017-11-20T03:22:00.850Z,2.30
2017-11-20T03:24:27.022Z,2.53
2017-11-20T03:26:53.194Z,2.20
2017-11-20T03:29:20.109Z,3.10
2017-11-20T03:31:46.303Z,2.60
2017-11-20T03:34:12.487Z,2.70
2017-11-20T03:36:38.655Z,2.40
2017-11-20T03:39:05.579Z,2.53
2017-11-20T03:41:32.491Z,2.73
2017-11-20T03:43:58.659Z,2.90
2017-11-20T03:46:28.345Z,4.13
2017-11-20T03:48:55.283Z,2.87
2017-11-20T03:51:21.469Z,2.90
2017-11-20T03:53:47.655Z,3.70
2017-11-20T03:56:13.814Z,3.73
2017-11-20T03:58:39.969Z,3.57
2017-11-20T04:01:06.157Z,4.27
2017-11-20T04:03:32.333Z,3.20
2017-11-20T04:05:58.507Z,3.37
2017-11-20T04:08:24.726Z,2.97
2017-11-20T04:10:50.895Z,3.63
2017-11-20T04:13:17.782Z,2.80
2017-11-20T04:15:43.982Z,3.60
2017-11-20T04:18:10.294Z,3.90
2017-11-20T04:20:36.518Z,4.03
2017-11-20T04:23:03.426Z,3.20
2017-11-20T04:25:29.583Z,2.87
2017-11-20T04:27:55.722Z,4.10
2017-11-20T04:30:22.635Z,2.70
2017-11-20T04:32:48.790Z,3.80
2017-11-20T04:35:15.697Z,4.30
2017-11-20T04:37:41.886Z,4.17
2017-11-20T04:40:08.812Z,3.73
2017-11-20T04:42:34.983Z,3.90
2017-11-20T04:45:01.167Z,4.57
2017-11-20T04:47:28.289Z,3.17
2017-11-20T04:49:54.458Z,3.87
2017-11-20T04:52:20.660Z,3.87
2017-11-20T04:54:46.846Z,3.10
2017-11-20T04:57:13.036Z,3.60
2017-11-20T04:59:39.241Z,3.00
2017-11-20T05:02:05.450Z,3.53
2017-11-20T05:04:31.638Z,3.83
2017-11-20T05:06:58.705Z,4.23
2017-11-20T05:09:24.865Z,3.63
2017-11-20T05:11:51.614Z,3.10
2017-11-20T05:14:17.842Z,3.60
2017-11-20T05:16:43.999Z,4.00
2017-11-20T05:19:10.182Z,2.73
2017-11-20T05:21:37.142Z,2.80
2017-11-20T05:24:03.304Z,3.47
2017-11-20T05:26:30.213Z,3.97
2017-11-20T05:28:56.739Z,2.60
2017-11-20T05:31:22.907Z,4.97
2017-11-20T05:33:49.135Z,3.40
2017-11-20T05:36:16.266Z,3.37
2017-11-20T05:38:42.465Z,2.93
2017-11-20T05:41:08.645Z,4.33
2017-11-20T05:43:34.944Z,2.80
2017-11-20T05:46:01.172Z,4.80
2017-11-20T05:48:27.429Z,2.30
2017-11-20T05:50:54.431Z,2.57
2017-11-20T05:53:21.367Z,3.20
2017-11-20T05:55:47.548Z,4.40
2017-11-20T05:58:13.830Z,2.70
2017-11-20T06:00:40.002Z,3.30
2017-11-20T06:03:06.939Z,3.00
2017-11-20T06:05:33.190Z,2.83
2017-11-20T06:08:00.102Z,3.50
2017-11-20T06:10:26.266Z,3.77
2017-11-20T06:12:53.186Z,3.53
2017-11-20T06:15:19.358Z,3.17
2017-11-20T06:17:45.565Z,2.70
2017-11-20T06:20:11.750Z,3.00
2017-11-20T06:22:37.940Z,3.13
2017-11-20T06:25:04.138Z,3.03
2017-11-20T06:27:30.355Z,3.60
2017-11-20T06:29:56.548Z,3.37
2017-11-20T06:32:23.482Z,3.90
2017-11-20T06:34:49.681Z,4.17
2017-11-20T06:37:15.870Z,3.37
2017-11-20T06:39:42.834Z,3.13
2017-11-20T06:42:09.028Z,2.50
2017-11-20T06:44:35.194Z,2.40
2017-11-20T06:47:01.425Z,3.20
2017-11-20T06:49:28.411Z,2.53
2017-11-20T06:51:54.588Z,2.43
2017-11-20T06:54:20.785Z,2.90
2017-11-20T06:56:47.011Z,2.73
2017-11-20T06:59:13.857Z,3.63
2017-11-20T07:01:40.026Z,2.70
2017-11-20T07:04:06.199Z,3.50
2017-11-20T07:06:32.381Z,2.40
2017-11-20T07:08:59.334Z,2.63
2017-11-20T07:11:25.503Z,2.27
2017-11-20T07:13:52.469Z,2.73
2017-11-20T07:16:18.653Z,2.73
2017-11-20T07:18:45.606Z,3.20
2017-11-20T07:21:11.776Z,3.03
2017-11-20T07:23:38.718Z,3.13
2017-11-20T07:26:17.262Z,2.53
2017-11-20T07:31:43.698Z,3.57
2017-11-20T07:37:26.498Z,3.37
2017-11-20T07:42:54.501Z,4.57
2017-11-20T07:45:20.666Z,5.83
2017-11-20T07:47:46.831Z,3.63
2017-11-20T07:50:13.114Z,3.17
2017-11-20T07:52:39.353Z,4.43
2017-11-20T07:55:05.548Z,2.93
2017-11-20T07:57:32.470Z,3.90
2017-11-20T07:59:58.641Z,7.23
2017-11-20T08:02:26.317Z,3.97
2017-11-20T08:04:52.559Z,3.73
2017-11-20T08:07:18.721Z,2.67
2017-11-20T08:09:44.884Z,2.93
2017-11-20T08:12:11.826Z,4.30
2017-11-20T08:14:38.003Z,3.47
2017-11-20T08:17:04.238Z,5.10
2017-11-20T08:19:30.437Z,3.90
2017-11-20T08:21:58.078Z,4.70
2017-11-20T08:24:24.527Z,4.57
2017-11-20T08:26:50.737Z,4.00
2017-11-20T08:29:16.893Z,3.93
2017-11-20T08:31:43.098Z,3.93
2017-11-20T08:34:09.305Z,4.20
2017-11-20T08:36:36.236Z,4.60
2017-11-20T08:39:02.400Z,4.60
2017-11-20T08:41:28.601Z,4.07
2017-11-20T08:43:55.716Z,4.37
2017-11-20T08:46:21.893Z,4.53
2017-11-20T08:48:48.833Z,2.90
2017-11-20T08:51:15.076Z,3.00
2017-11-20T08:53:41.243Z,2.40
2017-11-20T08:56:07.447Z,3.10
2017-11-20T08:58:34.352Z,2.80
2017-11-20T09:01:00.532Z,11.73
2017-11-20T09:03:27.503Z,3.57
2017-11-20T09:05:53.665Z,2.93
2017-11-20T09:08:19.843Z,3.90
2017-11-20T09:10:46.486Z,2.60
2017-11-20T09:13:12.658Z,2.47
2017-11-20T09:15:38.841Z,3.60
2017-11-20T09:18:05.043Z,3.30
2017-11-20T09:20:31.203Z,4.00
2017-11-20T09:22:58.147Z,4.33
2017-11-20T09:25:24.342Z,3.97
2017-11-20T09:27:50.538Z,3.90
2017-11-20T09:30:17.445Z,4.77
2017-11-20T09:32:44.141Z,5.67
2017-11-20T09:35:10.479Z,4.20
2017-11-20T09:37:50.457Z,4.67
2017-11-20T09:40:17.611Z,3.80
2017-11-20T09:42:43.780Z,4.33
2017-11-20T09:45:09.970Z,4.33
2017-11-20T09:47:36.138Z,4.80
2017-11-20T09:50:02.362Z,4.50
2017-11-20T09:52:28.905Z,4.47
2017-11-20T09:54:55.068Z,5.00
2017-11-20T09:57:21.233Z,5.57
2017-11-20T09:59:48.162Z,5.20
2017-11-20T10:02:14.330Z,4.47
2017-11-20T10:04:40.499Z,5.00
2017-11-20T10:07:06.707Z,5.50
2017-11-20T10:09:32.866Z,4.60
2017-11-20T10:11:59.139Z,5.27
2017-11-20T10:14:27.333Z,5.10
2017-11-20T10:16:56.277Z,4.90
2017-11-20T10:19:22.500Z,5.50
2017-11-20T10:21:50.491Z,4.13
2017-11-20T10:24:19.030Z,4.80
2017-11-20T10:26:47.961Z,6.20
2017-11-20T10:29:14.953Z,5.13
2017-11-20T10:31:41.121Z,6.27
2017-11-20T10:34:07.290Z,5.63
2017-11-20T10:36:33.480Z,6.33
2017-11-20T10:39:02.667Z,5.77
2017-11-20T10:41:30.460Z,8.60
2017-11-20T10:43:59.647Z,5.60
2017-11-20T10:46:26.555Z,6.10
2017-11-20T10:48:54.799Z,6.77
2017-11-20T10:51:24.582Z,7.20
2017-11-20T10:53:51.907Z,6.43
2017-11-20T10:56:18.881Z,7.20
2017-11-20T11:01:43.460Z,5.33
2017-11-20T11:04:09.704Z,5.20
2017-11-20T11:06:35.930Z,5.80
2017-11-20T11:09:02.136Z,6.43
2017-11-20T11:11:28.371Z,5.83
2017-11-20T11:13:54.547Z,6.47
2017-11-20T11:16:20.746Z,6.13
2017-11-20T11:18:46.946Z,5.10
2017-11-20T11:21:13.138Z,5.50
2017-11-20T11:23:39.330Z,6.50
2017-11-20T11:26:05.547Z,5.57
2017-11-20T11:28:31.910Z,6.17
2017-11-20T11:30:58.106Z,6.70
2017-11-20T11:33:25.050Z,6.70
2017-11-20T11:35:51.231Z,7.40
2017-11-20T11:38:17.399Z,6.40
2017-11-20T11:40:43.586Z,6.70
2017-11-20T11:43:09.761Z,6.23
2017-11-20T11:45:36.023Z,5.97
2017-11-20T11:48:02.957Z,8.20
2017-11-20T11:50:29.169Z,6.60
2017-11-20T11:52:55.414Z,5.97
2017-11-20T11:55:21.694Z,5.13
2017-11-20T11:57:47.858Z,5.77
2017-11-20T12:00:14.060Z,5.13
2017-11-20T12:02:40.291Z,5.13
2017-11-20T12:05:07.242Z,6.20
2017-11-20T12:07:33.466Z,6.20
2017-11-20T12:10:00.422Z,6.77
2017-11-20T12:12:26.629Z,6.27
2017-11-20T12:14:52.825Z,5.80
2017-11-20T12:17:19.044Z,5.80
2017-11-20T12:19:45.304Z,5.20
2017-11-20T12:22:11.482Z,5.17
2017-11-20T12:24:38.424Z,5.67
2017-11-20T12:27:05.435Z,4.30
2017-11-20T12:29:31.639Z,5.50
2017-11-20T12:31:59.223Z,4.97
2017-11-20T12:34:25.390Z,5.00
2017-11-20T12:36:51.572Z,4.43
2017-11-20T12:39:17.761Z,4.33
2017-11-20T12:41:43.951Z,4.40
2017-11-20T12:44:10.159Z,4.53
2017-11-20T12:46:37.099Z,4.90
2017-11-20T12:49:03.293Z,5.60
2017-11-20T12:51:29.500Z,4.70
2017-11-20T12:53:55.735Z,4.07
2017-11-20T12:56:22.003Z,4.53
2017-11-20T12:58:48.174Z,3.63
2017-11-20T13:01:15.106Z,3.90
2017-11-20T13:03:41.328Z,3.97
2017-11-20T13:06:07.478Z,2.37
2017-11-20T13:08:33.694Z,2.70
2017-11-20T13:11:00.634Z,2.57
2017-11-20T13:13:26.815Z,2.50
2017-11-20T13:15:53.010Z,2.13
2017-11-20T13:18:19.197Z,2.63
2017-11-20T13:20:46.119Z,2.27
2017-11-20T13:23:12.362Z,2.60
2017-11-20T13:25:39.276Z,2.70
2017-11-20T13:28:05.570Z,2.63
2017-11-20T13:30:31.763Z,2.80
2017-11-20T13:32:57.994Z,2.17
2017-11-20T13:35:24.194Z,2.20
2017-11-20T13:37:51.138Z,2.43
2017-11-20T13:40:17.345Z,2.47
2017-11-20T13:42:44.341Z,5.53
2017-11-20T13:45:10.553Z,3.70
2017-11-20T13:50:22.131Z,2.40
2017-11-20T13:52:48.361Z,1.90
2017-11-20T13:55:14.526Z,2.13
2017-11-20T13:57:40.862Z,2.50
2017-11-20T14:00:07.046Z,2.77
2017-11-20T14:02:33.220Z,2.80
2017-11-20T14:04:59.478Z,3.50
2017-11-20T14:07:26.574Z,3.97
2017-11-20T14:09:52.826Z,2.70
2017-11-20T14:12:19.793Z,3.00
2017-11-20T14:14:46.084Z,2.23
2017-11-20T14:17:12.294Z,2.70
2017-11-20T14:19:38.486Z,2.70
2017-11-20T14:22:05.418Z,2.50
2017-11-20T14:24:32.395Z,3.43
2017-11-20T14:26:59.399Z,3.30
2017-11-20T14:29:25.612Z,3.13
2017-11-20T14:31:51.799Z,3.70
2017-11-20T14:34:18.049Z,3.10
2017-11-20T14:36:44.983Z,3.30
2017-11-20T14:39:11.908Z,3.83
2017-11-20T14:41:38.143Z,6.73
2017-11-20T14:44:04.320Z,4.70
2017-11-20T14:46:30.533Z,4.60
2017-11-20T14:48:57.481Z,5.60
2017-11-20T14:51:33.678Z,4.80
2017-11-20T14:53:59.974Z,4.87
2017-11-20T14:56:26.964Z,5.33
2017-11-20T14:58:53.249Z,5.90
2017-11-20T15:04:11.660Z,8.57
2017-11-20T15:06:37.885Z,8.40
2017-11-20T15:09:04.817Z,7.90
2017-11-20T15:11:31.069Z,8.30
2017-11-20T15:13:58.047Z,9.00
2017-11-20T15:16:24.231Z,9.90
2017-11-20T15:18:50.450Z,10.07
2017-11-20T15:21:17.413Z,10.07
2017-11-20T15:23:44.387Z,9.57
2017-11-20T15:26:10.590Z,10.00
2017-11-20T15:28:36.783Z,10.70
2017-11-20T15:31:03.017Z,10.20
2017-11-20T15:33:29.242Z,10.80
2017-11-20T15:35:55.428Z,11.50
2017-11-20T15:38:21.650Z,11.17
2017-11-20T15:40:47.822Z,13.23
2017-11-20T15:43:14.792Z,12.40
2017-11-20T15:45:40.992Z,13.90
2017-11-20T15:48:07.935Z,13.87
2017-11-20T15:50:34.161Z,15.27
2017-11-20T15:53:00.378Z,15.23
2017-11-20T15:55:27.321Z,16.20
2017-11-20T15:57:53.520Z,16.03
2017-11-20T16:00:19.767Z,15.53
2017-11-20T16:02:45.975Z,17.30
2017-11-20T16:05:12.921Z,15.90
2017-11-20T16:07:39.864Z,15.93
2017-11-20T16:10:06.797Z,13.73
2017-11-20T16:12:34.568Z,13.60
2017-11-20T16:15:00.796Z,14.60
2017-11-20T16:17:28.672Z,13.87
2017-11-20T16:19:57.030Z,13.73
2017-11-20T16:22:24.272Z,15.00
2017-11-20T16:25:08.061Z,14.03
2017-11-20T16:27:34.499Z,15.53
2017-11-20T16:30:06.154Z,15.70
2017-11-20T16:32:33.086Z,15.40
2017-11-20T16:34:59.287Z,15.43
2017-11-20T16:37:29.305Z,14.30
2017-11-20T16:39:55.507Z,14.10
2017-11-20T16:43:09.546Z,15.63
2017-11-20T16:45:38.659Z,15.20
2017-11-20T16:48:08.842Z,13.70
2017-11-20T16:50:35.087Z,15.70
2017-11-20T16:53:01.545Z,16.10
2017-11-20T16:55:28.510Z,18.10
2017-11-20T16:58:07.795Z,14.50
2017-11-20T17:00:35.738Z,16.50
2017-11-20T17:03:09.004Z,16.77
2017-11-20T17:05:35.947Z,16.00
2017-11-20T17:08:02.881Z,15.50
2017-11-20T17:10:30.243Z,16.00
2017-11-20T17:12:56.433Z,16.23
2017-11-20T17:15:22.917Z,16.53
2017-11-20T17:17:49.102Z,15.27
2017-11-20T17:20:16.287Z,15.93
2017-11-20T17:22:43.012Z,15.27
2017-11-20T17:25:10.106Z,15.20
2017-11-20T17:27:37.035Z,14.60
2017-11-20T17:30:03.349Z,13.30
2017-11-20T17:32:29.569Z,14.17
2017-11-20T17:34:58.633Z,12.80
2017-11-20T17:37:25.933Z,12.60
2017-11-20T17:40:00.626Z,12.50
2017-11-20T17:42:27.638Z,12.00
2017-11-20T17:44:53.897Z,12.47
2017-11-20T17:47:20.275Z,11.83
2017-11-20T17:49:46.715Z,14.30
2017-11-20T17:52:13.343Z,13.70
2017-11-20T17:54:40.441Z,15.63
2017-11-20T17:57:12.873Z,15.30
2017-11-20T17:59:39.058Z,14.67
2017-11-20T18:02:11.576Z,16.50
2017-11-20T18:04:38.540Z,17.50
2017-11-20T18:07:05.496Z,17.77
2017-11-20T18:09:31.698Z,25.47
2017-11-20T18:11:57.915Z,20.97
2017-11-20T18:14:37.307Z,18.33
2017-11-20T18:17:03.527Z,15.97
2017-11-20T18:19:30.465Z,17.77
2017-11-20T18:21:59.529Z,16.27
2017-11-20T18:24:27.874Z,17.20
2017-11-20T18:26:58.102Z,18.93
2017-11-20T18:29:27.980Z,15.87
2017-11-20T18:31:54.932Z,16.67
2017-11-20T18:34:25.813Z,17.43
2017-11-20T18:36:52.065Z,18.57
2017-11-20T18:39:22.614Z,18.50
2017-11-20T18:41:49.876Z,19.63
2017-11-20T18:44:16.142Z,18.20
2017-11-20T18:46:42.351Z,17.30
2017-11-20T18:49:08.655Z,18.80
2017-11-20T18:51:35.646Z,20.60
2017-11-20T18:54:04.014Z,22.43
2017-11-20T18:56:30.361Z,20.90
2017-11-20T18:58:56.616Z,18.70
2017-11-20T19:01:35.282Z,20.47
2017-11-20T19:04:13.896Z,20.20
2017-11-20T19:09:42.318Z,21.77
2017-11-20T19:12:09.347Z,21.13
2017-11-20T19:14:35.618Z,22.47
2017-11-20T19:17:01.815Z,20.67
2017-11-20T19:19:28.941Z,22.83
2017-11-20T19:21:55.151Z,21.57
2017-11-20T19:24:22.086Z,21.70
2017-11-20T19:26:48.286Z,22.87
2017-11-20T19:29:14.502Z,22.07
2017-11-20T19:31:40.700Z,20.93
2017-11-20T19:34:06.910Z,22.00
2017-11-20T19:36:33.114Z,20.17
2017-11-20T19:38:59.323Z,22.53
2017-11-20T19:41:26.253Z,23.60
2017-11-20T19:43:52.457Z,23.10
2017-11-20T19:46:18.663Z,22.60
2017-11-20T19:48:44.940Z,23.20
2017-11-20T19:51:11.173Z,21.90
2017-11-20T19:53:37.361Z,22.40
2017-11-20T19:56:03.604Z,24.03
2017-11-20T19:58:29.779Z,23.00
2017-11-20T20:00:55.956Z,21.53
2017-11-20T20:03:22.211Z,22.00
2017-11-20T20:05:48.498Z,21.50
2017-11-20T20:08:14.681Z,25.60
2017-11-20T20:10:40.891Z,23.30
2017-11-20T20:13:07.084Z,23.40
2017-11-20T20:15:45.613Z,21.37
2017-11-20T20:18:12.551Z,20.93
2017-11-20T20:20:39.037Z,21.20
2017-11-20T20:23:05.512Z,20.87
2017-11-20T20:25:32.095Z,22.70
2017-11-20T20:27:58.517Z,22.47
2017-11-20T20:30:24.868Z,22.90
2017-11-20T20:32:51.794Z,24.40
2017-11-20T20:35:20.228Z,23.77
2017-11-20T20:37:50.218Z,23.03
2017-11-20T20:40:16.408Z,24.93
2017-11-20T20:42:42.656Z,22.87
2017-11-20T20:45:08.877Z,24.50
2017-11-20T20:47:38.791Z,23.50
2017-11-20T20:50:05.113Z,24.33
2017-11-20T20:52:33.149Z,23.57
2017-11-20T20:55:01.262Z,23.13
2017-11-20T20:57:27.620Z,24.80
2017-11-20T20:59:56.468Z,24.70
2017-11-20T21:02:23.182Z,23.40
2017-11-20T21:04:52.787Z,22.87
2017-11-20T21:07:21.403Z,25.20
2017-11-20T21:09:57.816Z,24.97
2017-11-20T21:12:25.066Z,24.50
2017-11-20T21:14:52.239Z,23.60
2017-11-20T21:17:19.326Z,23.70
2017-11-20T21:19:45.752Z,24.60
2017-11-20T21:22:13.999Z,24.00
2017-11-20T21:24:41.088Z,24.50
2017-11-20T21:27:08.984Z,25.30
2017-11-20T21:29:42.912Z,23.27
2017-11-20T21:32:10.096Z,24.37
2017-11-20T21:34:40.630Z,23.90
2017-11-20T21:37:06.952Z,24.37
2017-11-20T21:39:38.742Z,23.33
2017-11-20T21:42:05.840Z,24.67
2017-11-20T21:44:42.950Z,24.67
2017-11-20T21:47:09.330Z,24.20
2017-11-20T21:49:39.470Z,24.53
2017-11-20T21:52:06.854Z,23.83
2017-11-20T21:54:34.074Z,27.00
2017-11-20T21:57:01.703Z,30.13
2017-11-20T21:59:36.513Z,23.83
2017-11-20T22:02:03.261Z,24.80
2017-11-20T22:04:29.581Z,24.73
2017-11-20T22:06:55.883Z,25.70
2017-11-20T22:09:22.217Z,24.53
2017-11-20T22:11:48.442Z,24.03
2017-11-20T22:14:14.674Z,24.93
2017-11-20T22:16:40.891Z,24.37
2017-11-20T22:19:09.983Z,24.00
2017-11-20T22:21:36.934Z,24.00
2017-11-20T22:24:03.170Z,23.90
2017-11-20T22:26:30.078Z,22.70
2017-11-20T22:28:56.280Z,24.07
2017-11-20T22:31:22.447Z,26.50
2017-11-20T22:33:49.393Z,24.60
2017-11-20T22:36:15.610Z,25.83
2017-11-20T22:38:41.784Z,24.03
2017-11-20T22:41:07.952Z,24.27
2017-11-20T22:43:34.151Z,23.93
2017-11-20T22:46:01.057Z,23.80
2017-11-20T22:48:27.229Z,25.10
2017-11-20T22:50:53.430Z,24.70
2017-11-20T22:53:19.622Z,23.87
2017-11-20T22:55:45.884Z,22.60
2017-11-20T22:58:12.088Z,22.80
2017-11-20T23:00:39.012Z,24.40
2017-11-20T23:03:05.245Z,24.53
2017-11-20T23:05:31.439Z,22.83
2017-11-20T23:07:57.611Z,23.73
2017-11-20T23:10:23.850Z,22.80
2017-11-20T23:12:50.042Z,22.83
2017-11-20T23:15:16.250Z,22.97
2017-11-20T23:17:42.425Z,24.93
2017-11-20T23:20:09.459Z,23.80
2017-11-20T23:22:35.658Z,23.17
2017-11-20T23:25:03.458Z,23.33
2017-11-20T23:27:30.482Z,22.67
2017-11-20T23:29:57.385Z,21.80
2017-11-20T23:32:23.611Z,23.23
2017-11-20T23:34:49.802Z,24.37
2017-11-20T23:37:16.706Z,22.93
2017-11-20T23:39:42.897Z,23.07
2017-11-20T23:42:09.987Z,22.30
2017-11-20T23:44:36.895Z,23.30
2017-11-20T23:47:03.106Z,24.00
2017-11-20T23:49:30.072Z,23.40
2017-11-20T23:51:56.278Z,21.47
2017-11-20T23:54:32.763Z,21.10
2017-11-20T23:56:59.738Z,21.83
2017-11-20T23:59:25.940Z,20.17
